sensor_id;sensor_type;location;lat;lon;timestamp;pressure;altitude;pressure_sealevel;temperature
12061;BMP180;6091;51.432;6.880;2024-02-04T00:00:00;101567.00;;;22.40
12061;BMP180;6091;51.432;6.880;2024-02-04T00:02:28;101570.00;;;22.40
12061;BMP180;6091;51.432;6.880;2024-02-04T00:04:55;101572.00;;;22.40
12061;BMP180;6091;51.432;6.880;2024-02-04T00:07:23;101570.00;;;22.40
12061;BMP180;6091;51.432;6.880;2024-02-04T00:09:50;101561.00;;;22.40
12061;BMP180;6091;51.432;6.880;2024-02-04T00:12:18;101542.00;;;22.40
12061;BMP180;6091;51.432;6.880;2024-02-04T00:14:45;101546.00;;;22.40
12061;BMP180;6091;51.432;6.880;2024-02-04T00:17:12;101538.00;;;22.40
12061;BMP180;6091;51.432;6.880;2024-02-04T00:19:42;101538.00;;;22.40
12061;BMP180;6091;51.432;6.880;2024-02-04T00:22:10;101540.00;;;22.40
12061;BMP180;6091;51.432;6.880;2024-02-04T00:24:37;101532.00;;;22.40
12061;BMP180;6091;51.432;6.880;2024-02-04T00:27:04;101522.00;;;22.40
12061;BMP180;6091;51.432;6.880;2024-02-04T00:29:32;101537.00;;;22.40
12061;BMP180;6091;51.432;6.880;2024-02-04T00:31:59;101541.00;;;22.40
12061;BMP180;6091;51.432;6.880;2024-02-04T00:34:27;101536.00;;;22.40
12061;BMP180;6091;51.432;6.880;2024-02-04T00:36:54;101548.00;;;22.40
12061;BMP180;6091;51.432;6.880;2024-02-04T00:39:22;101554.00;;;22.40
12061;BMP180;6091;51.432;6.880;2024-02-04T00:41:49;101545.00;;;22.40
12061;BMP180;6091;51.432;6.880;2024-02-04T00:44:16;101536.00;;;22.40
12061;BMP180;6091;51.432;6.880;2024-02-04T00:46:44;101540.00;;;22.40
12061;BMP180;6091;51.432;6.880;2024-02-04T00:49:11;101545.00;;;22.30
12061;BMP180;6091;51.432;6.880;2024-02-04T00:51:39;101550.00;;;22.40
12061;BMP180;6091;51.432;6.880;2024-02-04T00:54:06;101545.00;;;22.40
12061;BMP180;6091;51.432;6.880;2024-02-04T00:56:35;101544.00;;;22.30
12061;BMP180;6091;51.432;6.880;2024-02-04T00:59:04;101544.00;;;22.40
12061;BMP180;6091;51.432;6.880;2024-02-04T01:01:32;101544.00;;;22.30
12061;BMP180;6091;51.432;6.880;2024-02-04T01:03:59;101542.00;;;22.30
12061;BMP180;6091;51.432;6.880;2024-02-04T01:06:27;101538.00;;;22.30
12061;BMP180;6091;51.432;6.880;2024-02-04T01:08:58;101543.00;;;22.30
12061;BMP180;6091;51.432;6.880;2024-02-04T01:11:25;101549.00;;;22.30
12061;BMP180;6091;51.432;6.880;2024-02-04T01:13:53;101539.00;;;22.30
12061;BMP180;6091;51.432;6.880;2024-02-04T01:16:20;101535.00;;;22.30
12061;BMP180;6091;51.432;6.880;2024-02-04T01:18:47;101533.00;;;22.30
12061;BMP180;6091;51.432;6.880;2024-02-04T01:21:14;101538.00;;;22.30
12061;BMP180;6091;51.432;6.880;2024-02-04T01:23:41;101536.00;;;22.30
12061;BMP180;6091;51.432;6.880;2024-02-04T01:26:08;101540.00;;;22.30
12061;BMP180;6091;51.432;6.880;2024-02-04T01:28:37;101537.00;;;22.30
12061;BMP180;6091;51.432;6.880;2024-02-04T01:31:05;101542.00;;;22.30
12061;BMP180;6091;51.432;6.880;2024-02-04T01:33:37;101542.00;;;22.30
12061;BMP180;6091;51.432;6.880;2024-02-04T01:36:05;101537.00;;;22.30
12061;BMP180;6091;51.432;6.880;2024-02-04T01:38:32;101540.00;;;22.30
12061;BMP180;6091;51.432;6.880;2024-02-04T01:41:00;101554.00;;;22.30
12061;BMP180;6091;51.432;6.880;2024-02-04T01:43:27;101554.00;;;22.30
12061;BMP180;6091;51.432;6.880;2024-02-04T01:45:54;101550.00;;;22.30
12061;BMP180;6091;51.432;6.880;2024-02-04T01:48:22;101542.00;;;22.30
12061;BMP180;6091;51.432;6.880;2024-02-04T01:50:53;101538.00;;;22.30
12061;BMP180;6091;51.432;6.880;2024-02-04T01:53:23;101537.00;;;22.30
12061;BMP180;6091;51.432;6.880;2024-02-04T01:55:51;101529.00;;;22.30
12061;BMP180;6091;51.432;6.880;2024-02-04T01:58:18;101510.00;;;22.30
12061;BMP180;6091;51.432;6.880;2024-02-04T02:00:46;101520.00;;;22.30
12061;BMP180;6091;51.432;6.880;2024-02-04T02:03:14;101521.00;;;22.30
12061;BMP180;6091;51.432;6.880;2024-02-04T02:05:43;101515.00;;;22.30
12061;BMP180;6091;51.432;6.880;2024-02-04T02:08:11;101517.00;;;22.30
12061;BMP180;6091;51.432;6.880;2024-02-04T02:10:38;101523.00;;;22.30
12061;BMP180;6091;51.432;6.880;2024-02-04T02:13:24;101524.00;;;22.30
12061;BMP180;6091;51.432;6.880;2024-02-04T02:15:59;101526.00;;;22.30
12061;BMP180;6091;51.432;6.880;2024-02-04T02:18:54;101534.00;;;22.30
12061;BMP180;6091;51.432;6.880;2024-02-04T02:21:47;101523.00;;;22.20
12061;BMP180;6091;51.432;6.880;2024-02-04T02:26:51;101522.00;;;22.20
12061;BMP180;6091;51.432;6.880;2024-02-04T02:29:18;101524.00;;;22.20
12061;BMP180;6091;51.432;6.880;2024-02-04T02:31:46;101525.00;;;22.30
12061;BMP180;6091;51.432;6.880;2024-02-04T02:34:16;101517.00;;;22.30
12061;BMP180;6091;51.432;6.880;2024-02-04T02:37:07;101515.00;;;22.20
12061;BMP180;6091;51.432;6.880;2024-02-04T02:40:06;101521.00;;;22.20
12061;BMP180;6091;51.432;6.880;2024-02-04T02:42:38;101520.00;;;22.20
12061;BMP180;6091;51.432;6.880;2024-02-04T02:45:07;101520.00;;;22.20
12061;BMP180;6091;51.432;6.880;2024-02-04T02:47:37;101521.00;;;22.20
12061;BMP180;6091;51.432;6.880;2024-02-04T02:50:08;101526.00;;;22.20
12061;BMP180;6091;51.432;6.880;2024-02-04T02:52:35;101522.00;;;22.20
12061;BMP180;6091;51.432;6.880;2024-02-04T02:55:03;101525.00;;;22.20
12061;BMP180;6091;51.432;6.880;2024-02-04T02:57:31;101521.00;;;22.20
12061;BMP180;6091;51.432;6.880;2024-02-04T02:59:58;101519.00;;;22.20
12061;BMP180;6091;51.432;6.880;2024-02-04T03:02:26;101518.00;;;22.20
12061;BMP180;6091;51.432;6.880;2024-02-04T03:04:53;101512.00;;;22.20
12061;BMP180;6091;51.432;6.880;2024-02-04T03:07:22;101510.00;;;22.20
12061;BMP180;6091;51.432;6.880;2024-02-04T03:09:53;101516.00;;;22.20
12061;BMP180;6091;51.432;6.880;2024-02-04T03:12:22;101513.00;;;22.20
12061;BMP180;6091;51.432;6.880;2024-02-04T03:14:50;101514.00;;;22.20
12061;BMP180;6091;51.432;6.880;2024-02-04T03:17:17;101524.00;;;22.20
12061;BMP180;6091;51.432;6.880;2024-02-04T03:19:49;101520.00;;;22.20
12061;BMP180;6091;51.432;6.880;2024-02-04T03:22:18;101514.00;;;22.20
12061;BMP180;6091;51.432;6.880;2024-02-04T03:24:47;101509.00;;;22.20
12061;BMP180;6091;51.432;6.880;2024-02-04T03:27:17;101492.00;;;22.20
12061;BMP180;6091;51.432;6.880;2024-02-04T03:29:47;101502.00;;;22.20
12061;BMP180;6091;51.432;6.880;2024-02-04T03:32:14;101500.00;;;22.20
12061;BMP180;6091;51.432;6.880;2024-02-04T03:34:42;101501.00;;;22.20
12061;BMP180;6091;51.432;6.880;2024-02-04T03:37:09;101490.00;;;22.20
12061;BMP180;6091;51.432;6.880;2024-02-04T03:39:37;101482.00;;;22.20
12061;BMP180;6091;51.432;6.880;2024-02-04T03:42:04;101483.00;;;22.20
12061;BMP180;6091;51.432;6.880;2024-02-04T03:44:31;101492.00;;;22.20
12061;BMP180;6091;51.432;6.880;2024-02-04T03:46:58;101488.00;;;22.20
12061;BMP180;6091;51.432;6.880;2024-02-04T03:49:25;101485.00;;;22.20
12061;BMP180;6091;51.432;6.880;2024-02-04T03:51:53;101494.00;;;22.20
12061;BMP180;6091;51.432;6.880;2024-02-04T03:54:21;101487.00;;;22.20
12061;BMP180;6091;51.432;6.880;2024-02-04T03:56:48;101493.00;;;22.20
12061;BMP180;6091;51.432;6.880;2024-02-04T03:59:15;101490.00;;;22.20
12061;BMP180;6091;51.432;6.880;2024-02-04T04:01:50;101491.00;;;22.20
12061;BMP180;6091;51.432;6.880;2024-02-04T04:04:20;101484.00;;;22.20
12061;BMP180;6091;51.432;6.880;2024-02-04T04:06:49;101476.00;;;22.20
12061;BMP180;6091;51.432;6.880;2024-02-04T04:09:16;101479.00;;;22.20
12061;BMP180;6091;51.432;6.880;2024-02-04T04:11:44;101485.00;;;22.20
12061;BMP180;6091;51.432;6.880;2024-02-04T04:14:12;101481.00;;;22.20
12061;BMP180;6091;51.432;6.880;2024-02-04T04:16:39;101488.00;;;22.20
12061;BMP180;6091;51.432;6.880;2024-02-04T04:19:06;101477.00;;;22.20
12061;BMP180;6091;51.432;6.880;2024-02-04T04:21:34;101483.00;;;22.20
12061;BMP180;6091;51.432;6.880;2024-02-04T04:24:03;101481.00;;;22.20
12061;BMP180;6091;51.432;6.880;2024-02-04T04:26:30;101501.00;;;22.20
12061;BMP180;6091;51.432;6.880;2024-02-04T04:28:58;101495.00;;;22.20
12061;BMP180;6091;51.432;6.880;2024-02-04T04:31:25;101508.00;;;22.20
12061;BMP180;6091;51.432;6.880;2024-02-04T04:33:52;101511.00;;;22.20
12061;BMP180;6091;51.432;6.880;2024-02-04T04:36:20;101523.00;;;22.20
12061;BMP180;6091;51.432;6.880;2024-02-04T04:38:48;101534.00;;;22.20
12061;BMP180;6091;51.432;6.880;2024-02-04T04:41:17;101527.00;;;22.20
12061;BMP180;6091;51.432;6.880;2024-02-04T04:43:44;101527.00;;;22.20
12061;BMP180;6091;51.432;6.880;2024-02-04T04:46:11;101524.00;;;22.20
12061;BMP180;6091;51.432;6.880;2024-02-04T04:48:38;101524.00;;;22.20
12061;BMP180;6091;51.432;6.880;2024-02-04T04:51:08;101508.00;;;22.20
12061;BMP180;6091;51.432;6.880;2024-02-04T04:53:36;101503.00;;;22.20
12061;BMP180;6091;51.432;6.880;2024-02-04T04:56:04;101494.00;;;22.20
12061;BMP180;6091;51.432;6.880;2024-02-04T04:58:32;101492.00;;;22.20
12061;BMP180;6091;51.432;6.880;2024-02-04T05:00:59;101494.00;;;22.20
12061;BMP180;6091;51.432;6.880;2024-02-04T05:03:27;101494.00;;;22.20
12061;BMP180;6091;51.432;6.880;2024-02-04T05:05:54;101492.00;;;22.20
12061;BMP180;6091;51.432;6.880;2024-02-04T05:08:21;101490.00;;;22.20
12061;BMP180;6091;51.432;6.880;2024-02-04T05:10:48;101480.00;;;22.20
12061;BMP180;6091;51.432;6.880;2024-02-04T05:13:15;101487.00;;;22.20
12061;BMP180;6091;51.432;6.880;2024-02-04T05:15:43;101497.00;;;22.20
12061;BMP180;6091;51.432;6.880;2024-02-04T05:18:10;101494.00;;;22.20
12061;BMP180;6091;51.432;6.880;2024-02-04T05:20:37;101500.00;;;22.20
12061;BMP180;6091;51.432;6.880;2024-02-04T05:23:06;101494.00;;;22.10
12061;BMP180;6091;51.432;6.880;2024-02-04T05:25:33;101494.00;;;22.10
12061;BMP180;6091;51.432;6.880;2024-02-04T05:28:01;101499.00;;;22.20
12061;BMP180;6091;51.432;6.880;2024-02-04T05:30:28;101494.00;;;22.20
12061;BMP180;6091;51.432;6.880;2024-02-04T05:32:55;101477.00;;;22.10
12061;BMP180;6091;51.432;6.880;2024-02-04T05:35:22;101462.00;;;22.20
12061;BMP180;6091;51.432;6.880;2024-02-04T05:37:49;101481.00;;;22.10
12061;BMP180;6091;51.432;6.880;2024-02-04T05:40:16;101482.00;;;22.10
12061;BMP180;6091;51.432;6.880;2024-02-04T05:42:46;101478.00;;;22.10
12061;BMP180;6091;51.432;6.880;2024-02-04T05:45:13;101462.00;;;22.10
12061;BMP180;6091;51.432;6.880;2024-02-04T05:47:40;101466.00;;;22.10
12061;BMP180;6091;51.432;6.880;2024-02-04T05:50:08;101464.00;;;22.10
12061;BMP180;6091;51.432;6.880;2024-02-04T05:52:36;101458.00;;;22.10
12061;BMP180;6091;51.432;6.880;2024-02-04T05:55:03;101466.00;;;22.10
12061;BMP180;6091;51.432;6.880;2024-02-04T05:57:31;101452.00;;;22.10
12061;BMP180;6091;51.432;6.880;2024-02-04T05:59:58;101446.00;;;22.10
12061;BMP180;6091;51.432;6.880;2024-02-04T06:02:26;101439.00;;;22.10
12061;BMP180;6091;51.432;6.880;2024-02-04T06:04:53;101438.00;;;22.10
12061;BMP180;6091;51.432;6.880;2024-02-04T06:07:22;101443.00;;;22.10
12061;BMP180;6091;51.432;6.880;2024-02-04T06:09:49;101447.00;;;22.10
12061;BMP180;6091;51.432;6.880;2024-02-04T06:12:16;101458.00;;;22.10
12061;BMP180;6091;51.432;6.880;2024-02-04T06:14:43;101458.00;;;22.10
12061;BMP180;6091;51.432;6.880;2024-02-04T06:17:10;101451.00;;;22.10
12061;BMP180;6091;51.432;6.880;2024-02-04T06:19:37;101452.00;;;22.10
12061;BMP180;6091;51.432;6.880;2024-02-04T06:22:05;101451.00;;;22.10
12061;BMP180;6091;51.432;6.880;2024-02-04T06:24:32;101453.00;;;22.10
12061;BMP180;6091;51.432;6.880;2024-02-04T06:27:03;101449.00;;;22.10
12061;BMP180;6091;51.432;6.880;2024-02-04T06:29:30;101441.00;;;22.10
12061;BMP180;6091;51.432;6.880;2024-02-04T06:31:57;101436.00;;;22.10
12061;BMP180;6091;51.432;6.880;2024-02-04T06:34:24;101430.00;;;22.10
12061;BMP180;6091;51.432;6.880;2024-02-04T06:36:52;101435.00;;;22.10
12061;BMP180;6091;51.432;6.880;2024-02-04T06:39:19;101440.00;;;22.10
12061;BMP180;6091;51.432;6.880;2024-02-04T06:41:49;101451.00;;;22.10
12061;BMP180;6091;51.432;6.880;2024-02-04T06:44:16;101441.00;;;22.10
12061;BMP180;6091;51.432;6.880;2024-02-04T06:46:43;101445.00;;;22.10
12061;BMP180;6091;51.432;6.880;2024-02-04T06:49:11;101436.00;;;22.10
12061;BMP180;6091;51.432;6.880;2024-02-04T06:51:38;101430.00;;;22.10
12061;BMP180;6091;51.432;6.880;2024-02-04T06:54:05;101427.00;;;22.10
12061;BMP180;6091;51.432;6.880;2024-02-04T06:56:32;101427.00;;;22.10
12061;BMP180;6091;51.432;6.880;2024-02-04T06:59:00;101419.00;;;22.10
12061;BMP180;6091;51.432;6.880;2024-02-04T07:01:27;101427.00;;;22.10
12061;BMP180;6091;51.432;6.880;2024-02-04T07:03:55;101422.00;;;22.10
12061;BMP180;6091;51.432;6.880;2024-02-04T07:06:22;101426.00;;;22.10
12061;BMP180;6091;51.432;6.880;2024-02-04T07:08:49;101431.00;;;22.10
12061;BMP180;6091;51.432;6.880;2024-02-04T07:11:17;101426.00;;;22.10
12061;BMP180;6091;51.432;6.880;2024-02-04T07:13:45;101426.00;;;22.10
12061;BMP180;6091;51.432;6.880;2024-02-04T07:16:12;101422.00;;;22.10
12061;BMP180;6091;51.432;6.880;2024-02-04T07:18:39;101418.00;;;22.10
12061;BMP180;6091;51.432;6.880;2024-02-04T07:21:06;101422.00;;;22.10
12061;BMP180;6091;51.432;6.880;2024-02-04T07:23:33;101437.00;;;22.10
12061;BMP180;6091;51.432;6.880;2024-02-04T07:26:01;101448.00;;;22.10
12061;BMP180;6091;51.432;6.880;2024-02-04T07:28:28;101451.00;;;22.10
12061;BMP180;6091;51.432;6.880;2024-02-04T07:30:55;101455.00;;;22.10
12061;BMP180;6091;51.432;6.880;2024-02-04T07:33:22;101436.00;;;22.10
12061;BMP180;6091;51.432;6.880;2024-02-04T07:35:49;101451.00;;;22.10
12061;BMP180;6091;51.432;6.880;2024-02-04T07:38:16;101450.00;;;22.10
12061;BMP180;6091;51.432;6.880;2024-02-04T07:40:45;101449.00;;;22.10
12061;BMP180;6091;51.432;6.880;2024-02-04T07:43:12;101433.00;;;22.10
12061;BMP180;6091;51.432;6.880;2024-02-04T07:45:40;101439.00;;;22.10
12061;BMP180;6091;51.432;6.880;2024-02-04T07:48:07;101438.00;;;22.10
12061;BMP180;6091;51.432;6.880;2024-02-04T07:50:36;101446.00;;;22.10
12061;BMP180;6091;51.432;6.880;2024-02-04T07:53:03;101436.00;;;22.10
12061;BMP180;6091;51.432;6.880;2024-02-04T07:55:30;101429.00;;;22.10
12061;BMP180;6091;51.432;6.880;2024-02-04T07:57:58;101444.00;;;22.10
12061;BMP180;6091;51.432;6.880;2024-02-04T08:00:25;101448.00;;;22.10
12061;BMP180;6091;51.432;6.880;2024-02-04T08:02:52;101452.00;;;22.10
12061;BMP180;6091;51.432;6.880;2024-02-04T08:05:20;101455.00;;;22.10
12061;BMP180;6091;51.432;6.880;2024-02-04T08:07:47;101450.00;;;22.10
12061;BMP180;6091;51.432;6.880;2024-02-04T08:10:15;101448.00;;;22.10
12061;BMP180;6091;51.432;6.880;2024-02-04T08:12:43;101449.00;;;22.10
12061;BMP180;6091;51.432;6.880;2024-02-04T08:15:10;101440.00;;;22.10
12061;BMP180;6091;51.432;6.880;2024-02-04T08:17:37;101438.00;;;22.10
12061;BMP180;6091;51.432;6.880;2024-02-04T08:20:05;101432.00;;;22.10
12061;BMP180;6091;51.432;6.880;2024-02-04T08:22:32;101438.00;;;22.10
12061;BMP180;6091;51.432;6.880;2024-02-04T08:25:00;101429.00;;;22.10
12061;BMP180;6091;51.432;6.880;2024-02-04T08:27:30;101433.00;;;22.10
12061;BMP180;6091;51.432;6.880;2024-02-04T08:29:57;101437.00;;;22.10
12061;BMP180;6091;51.432;6.880;2024-02-04T08:32:27;101434.00;;;22.10
12061;BMP180;6091;51.432;6.880;2024-02-04T08:34:54;101431.00;;;22.10
12061;BMP180;6091;51.432;6.880;2024-02-04T08:37:22;101440.00;;;22.10
12061;BMP180;6091;51.432;6.880;2024-02-04T08:39:55;101435.00;;;22.10
12061;BMP180;6091;51.432;6.880;2024-02-04T08:42:25;101431.00;;;22.10
12061;BMP180;6091;51.432;6.880;2024-02-04T08:44:52;101428.00;;;22.10
12061;BMP180;6091;51.432;6.880;2024-02-04T08:47:19;101432.00;;;22.10
12061;BMP180;6091;51.432;6.880;2024-02-04T08:49:47;101431.00;;;22.10
12061;BMP180;6091;51.432;6.880;2024-02-04T08:52:14;101420.00;;;22.10
12061;BMP180;6091;51.432;6.880;2024-02-04T08:54:42;101422.00;;;22.10
12061;BMP180;6091;51.432;6.880;2024-02-04T08:57:09;101428.00;;;22.10
12061;BMP180;6091;51.432;6.880;2024-02-04T08:59:36;101418.00;;;22.10
12061;BMP180;6091;51.432;6.880;2024-02-04T09:02:04;101409.00;;;22.10
12061;BMP180;6091;51.432;6.880;2024-02-04T09:04:37;101420.00;;;22.10
12061;BMP180;6091;51.432;6.880;2024-02-04T09:07:08;101420.00;;;22.10
12061;BMP180;6091;51.432;6.880;2024-02-04T09:09:35;101424.00;;;22.10
12061;BMP180;6091;51.432;6.880;2024-02-04T09:12:04;101414.00;;;22.10
12061;BMP180;6091;51.432;6.880;2024-02-04T09:14:31;101416.00;;;22.10
12061;BMP180;6091;51.432;6.880;2024-02-04T09:16:59;101418.00;;;22.10
12061;BMP180;6091;51.432;6.880;2024-02-04T09:19:27;101423.00;;;22.10
12061;BMP180;6091;51.432;6.880;2024-02-04T09:21:55;101420.00;;;22.10
12061;BMP180;6091;51.432;6.880;2024-02-04T09:24:22;101426.00;;;22.10
12061;BMP180;6091;51.432;6.880;2024-02-04T09:26:50;101424.00;;;22.10
12061;BMP180;6091;51.432;6.880;2024-02-04T09:29:17;101415.00;;;22.10
12061;BMP180;6091;51.432;6.880;2024-02-04T09:31:44;101415.00;;;22.10
12061;BMP180;6091;51.432;6.880;2024-02-04T09:34:13;101419.00;;;22.20
12061;BMP180;6091;51.432;6.880;2024-02-04T09:36:45;101422.00;;;22.10
12061;BMP180;6091;51.432;6.880;2024-02-04T09:39:13;101431.00;;;22.20
12061;BMP180;6091;51.432;6.880;2024-02-04T09:41:41;101420.00;;;22.20
12061;BMP180;6091;51.432;6.880;2024-02-04T09:44:11;101421.00;;;22.20
12061;BMP180;6091;51.432;6.880;2024-02-04T09:46:44;101420.00;;;22.20
12061;BMP180;6091;51.432;6.880;2024-02-04T09:49:13;101427.00;;;22.20
12061;BMP180;6091;51.432;6.880;2024-02-04T09:51:42;101432.00;;;22.20
12061;BMP180;6091;51.432;6.880;2024-02-04T09:54:16;101422.00;;;22.20
12061;BMP180;6091;51.432;6.880;2024-02-04T09:56:48;101436.00;;;22.20
12061;BMP180;6091;51.432;6.880;2024-02-04T09:59:18;101429.00;;;22.20
12061;BMP180;6091;51.432;6.880;2024-02-04T10:01:47;101430.00;;;22.20
12061;BMP180;6091;51.432;6.880;2024-02-04T10:04:16;101436.00;;;22.20
12061;BMP180;6091;51.432;6.880;2024-02-04T10:06:43;101437.00;;;22.20
12061;BMP180;6091;51.432;6.880;2024-02-04T10:09:11;101440.00;;;22.20
12061;BMP180;6091;51.432;6.880;2024-02-04T10:11:43;101442.00;;;22.20
12061;BMP180;6091;51.432;6.880;2024-02-04T10:14:10;101455.00;;;22.20
12061;BMP180;6091;51.432;6.880;2024-02-04T10:16:40;101450.00;;;22.20
12061;BMP180;6091;51.432;6.880;2024-02-04T10:19:08;101442.00;;;22.20
12061;BMP180;6091;51.432;6.880;2024-02-04T10:21:35;101449.00;;;22.20
12061;BMP180;6091;51.432;6.880;2024-02-04T10:24:03;101433.00;;;22.20
12061;BMP180;6091;51.432;6.880;2024-02-04T10:26:30;101439.00;;;22.20
12061;BMP180;6091;51.432;6.880;2024-02-04T10:28:58;101429.00;;;22.20
12061;BMP180;6091;51.432;6.880;2024-02-04T10:31:28;101439.00;;;22.20
12061;BMP180;6091;51.432;6.880;2024-02-04T10:33:57;101445.00;;;22.30
12061;BMP180;6091;51.432;6.880;2024-02-04T10:36:24;101446.00;;;22.30
12061;BMP180;6091;51.432;6.880;2024-02-04T10:38:53;101455.00;;;22.30
12061;BMP180;6091;51.432;6.880;2024-02-04T10:41:22;101454.00;;;22.30
12061;BMP180;6091;51.432;6.880;2024-02-04T10:43:53;101457.00;;;22.30
12061;BMP180;6091;51.432;6.880;2024-02-04T10:46:24;101446.00;;;22.40
12061;BMP180;6091;51.432;6.880;2024-02-04T10:49:00;101451.00;;;22.40
12061;BMP180;6091;51.432;6.880;2024-02-04T10:51:39;101437.00;;;22.40
12061;BMP180;6091;51.432;6.880;2024-02-04T10:54:07;101442.00;;;22.40
12061;BMP180;6091;51.432;6.880;2024-02-04T10:57:03;101439.00;;;22.40
12061;BMP180;6091;51.432;6.880;2024-02-04T10:59:34;101446.00;;;22.40
12061;BMP180;6091;51.432;6.880;2024-02-04T11:02:05;101436.00;;;22.40
12061;BMP180;6091;51.432;6.880;2024-02-04T11:04:34;101445.00;;;22.40
12061;BMP180;6091;51.432;6.880;2024-02-04T11:07:04;101436.00;;;22.50
12061;BMP180;6091;51.432;6.880;2024-02-04T11:09:36;101444.00;;;22.50
12061;BMP180;6091;51.432;6.880;2024-02-04T11:12:13;101437.00;;;22.50
12061;BMP180;6091;51.432;6.880;2024-02-04T11:14:47;101427.00;;;22.50
12061;BMP180;6091;51.432;6.880;2024-02-04T11:20:45;101430.00;;;22.50
12061;BMP180;6091;51.432;6.880;2024-02-04T11:23:32;101428.00;;;22.50
12061;BMP180;6091;51.432;6.880;2024-02-04T11:26:06;101419.00;;;22.80
12061;BMP180;6091;51.432;6.880;2024-02-04T11:28:35;101395.00;;;22.60
12061;BMP180;6091;51.432;6.880;2024-02-04T11:31:04;101401.00;;;22.60
12061;BMP180;6091;51.432;6.880;2024-02-04T11:33:33;101404.00;;;22.50
12061;BMP180;6091;51.432;6.880;2024-02-04T11:36:11;101402.00;;;22.60
12061;BMP180;6091;51.432;6.880;2024-02-04T11:38:43;101386.00;;;22.50
12061;BMP180;6091;51.432;6.880;2024-02-04T11:41:21;101389.00;;;22.50
12061;BMP180;6091;51.432;6.880;2024-02-04T11:43:55;101387.00;;;22.50
12061;BMP180;6091;51.432;6.880;2024-02-04T11:46:31;101378.00;;;22.50
12061;BMP180;6091;51.432;6.880;2024-02-04T11:49:01;101380.00;;;22.50
12061;BMP180;6091;51.432;6.880;2024-02-04T11:51:29;101372.00;;;22.50
12061;BMP180;6091;51.432;6.880;2024-02-04T11:54:01;101367.00;;;22.50
12061;BMP180;6091;51.432;6.880;2024-02-04T11:56:32;101373.00;;;22.50
12061;BMP180;6091;51.432;6.880;2024-02-04T11:59:04;101355.00;;;22.50
12061;BMP180;6091;51.432;6.880;2024-02-04T12:01:33;101357.00;;;22.50
12061;BMP180;6091;51.432;6.880;2024-02-04T12:04:13;101348.00;;;22.50
12061;BMP180;6091;51.432;6.880;2024-02-04T12:06:42;101343.00;;;22.50
12061;BMP180;6091;51.432;6.880;2024-02-04T12:09:11;101346.00;;;22.50
12061;BMP180;6091;51.432;6.880;2024-02-04T12:11:43;101341.00;;;22.60
12061;BMP180;6091;51.432;6.880;2024-02-04T12:14:11;101360.00;;;22.50
12061;BMP180;6091;51.432;6.880;2024-02-04T12:16:41;101356.00;;;22.60
12061;BMP180;6091;51.432;6.880;2024-02-04T12:19:12;101347.00;;;22.60
12061;BMP180;6091;51.432;6.880;2024-02-04T12:21:41;101352.00;;;22.60
12061;BMP180;6091;51.432;6.880;2024-02-04T12:24:08;101333.00;;;22.60
12061;BMP180;6091;51.432;6.880;2024-02-04T12:26:39;101343.00;;;22.60
12061;BMP180;6091;51.432;6.880;2024-02-04T12:29:07;101335.00;;;22.60
12061;BMP180;6091;51.432;6.880;2024-02-04T12:31:36;101333.00;;;22.60
12061;BMP180;6091;51.432;6.880;2024-02-04T12:34:13;101328.00;;;22.60
12061;BMP180;6091;51.432;6.880;2024-02-04T12:36:40;101325.00;;;22.60
12061;BMP180;6091;51.432;6.880;2024-02-04T12:39:11;101328.00;;;22.60
12061;BMP180;6091;51.432;6.880;2024-02-04T12:41:39;101329.00;;;22.60
12061;BMP180;6091;51.432;6.880;2024-02-04T12:44:07;101328.00;;;22.60
12061;BMP180;6091;51.432;6.880;2024-02-04T12:46:38;101330.00;;;22.60
12061;BMP180;6091;51.432;6.880;2024-02-04T12:49:07;101321.00;;;22.60
12061;BMP180;6091;51.432;6.880;2024-02-04T12:51:35;101322.00;;;22.60
12061;BMP180;6091;51.432;6.880;2024-02-04T12:54:11;101319.00;;;22.60
12061;BMP180;6091;51.432;6.880;2024-02-04T12:56:47;101327.00;;;22.60
12061;BMP180;6091;51.432;6.880;2024-02-04T13:01:58;101306.00;;;22.60
12061;BMP180;6091;51.432;6.880;2024-02-04T13:04:38;101311.00;;;22.60
12061;BMP180;6091;51.432;6.880;2024-02-04T13:07:11;101305.00;;;22.60
12061;BMP180;6091;51.432;6.880;2024-02-04T13:09:45;101307.00;;;22.50
12061;BMP180;6091;51.432;6.880;2024-02-04T13:12:15;101302.00;;;22.50
12061;BMP180;6091;51.432;6.880;2024-02-04T13:14:44;101291.00;;;22.50
12061;BMP180;6091;51.432;6.880;2024-02-04T13:17:12;101290.00;;;22.50
12061;BMP180;6091;51.432;6.880;2024-02-04T13:19:41;101293.00;;;22.50
12061;BMP180;6091;51.432;6.880;2024-02-04T13:22:11;101300.00;;;22.50
12061;BMP180;6091;51.432;6.880;2024-02-04T13:24:41;101299.00;;;22.50
12061;BMP180;6091;51.432;6.880;2024-02-04T13:27:09;101314.00;;;22.50
12061;BMP180;6091;51.432;6.880;2024-02-04T13:29:36;101308.00;;;22.50
12061;BMP180;6091;51.432;6.880;2024-02-04T13:32:07;101302.00;;;22.60
12061;BMP180;6091;51.432;6.880;2024-02-04T13:34:35;101314.00;;;22.60
12061;BMP180;6091;51.432;6.880;2024-02-04T13:37:03;101313.00;;;22.70
12061;BMP180;6091;51.432;6.880;2024-02-04T13:39:30;101321.00;;;22.90
12061;BMP180;6091;51.432;6.880;2024-02-04T13:41:58;101330.00;;;23.10
12061;BMP180;6091;51.432;6.880;2024-02-04T13:44:25;101328.00;;;23.30
12061;BMP180;6091;51.432;6.880;2024-02-04T13:46:52;101336.00;;;23.40
12061;BMP180;6091;51.432;6.880;2024-02-04T13:49:20;101338.00;;;23.70
12061;BMP180;6091;51.432;6.880;2024-02-04T13:51:48;101337.00;;;23.90
12061;BMP180;6091;51.432;6.880;2024-02-04T13:54:16;101335.00;;;24.00
12061;BMP180;6091;51.432;6.880;2024-02-04T13:56:45;101337.00;;;24.30
12061;BMP180;6091;51.432;6.880;2024-02-04T13:59:14;101335.00;;;24.50
12061;BMP180;6091;51.432;6.880;2024-02-04T14:01:42;101327.00;;;24.60
12061;BMP180;6091;51.432;6.880;2024-02-04T14:04:11;101333.00;;;24.80
12061;BMP180;6091;51.432;6.880;2024-02-04T14:06:38;101334.00;;;25.00
12061;BMP180;6091;51.432;6.880;2024-02-04T14:09:07;101316.00;;;25.20
12061;BMP180;6091;51.432;6.880;2024-02-04T14:11:35;101312.00;;;25.30
12061;BMP180;6091;51.432;6.880;2024-02-04T14:14:03;101307.00;;;25.50
12061;BMP180;6091;51.432;6.880;2024-02-04T14:16:31;101301.00;;;25.70
12061;BMP180;6091;51.432;6.880;2024-02-04T14:19:00;101306.00;;;25.80
12061;BMP180;6091;51.432;6.880;2024-02-04T14:21:28;101310.00;;;26.00
12061;BMP180;6091;51.432;6.880;2024-02-04T14:23:57;101330.00;;;26.10
12061;BMP180;6091;51.432;6.880;2024-02-04T14:26:24;101321.00;;;26.20